Time;durP1;ratioP1;P1;durP2;ratioP2;P2;SDS_P1;SDS_P2;PMS_P1;PMS_P2;Temp;Humidity;BMP_temperature;BMP_pressure;BME280_temperature;BME280_humidity;BME280_pressure;Samples;Min_cycle;Max_cycle;Signal;HPM_P1;HPM_P2
2021/12/23 00:01:50;;;;;;;;;;;;;;;-4.84;100.00;101465.34;5013671;28;1021;-71
2021/12/23 00:04:18;;;;;;;;;;;;;;;-4.78;100.00;101461.81;5012028;28;1255;-71
2021/12/23 00:06:44;;;;;;;;;;;;;;;-4.78;100.00;101461.81;5012213;28;1981;-73
2021/12/23 00:09:11;;;;;;;;;;;;;;;-4.83;100.00;101453.00;5013625;28;785;-73
2021/12/23 00:11:37;;;;;;;;;;;;;;;-4.89;100.00;101456.53;5013482;28;734;-72
2021/12/23 00:14:05;;;;;;;;;;;;;;;-4.93;100.00;101444.22;5013259;28;1271;-71
2021/12/23 00:16:43;;;;;;;;;;;;;;;-4.94;100.00;101443.34;5011904;28;846;-72
2021/12/23 00:19:20;;;;;;;;;;;;;;;-4.89;100.00;101438.91;5013309;28;998;-72
2021/12/23 00:24:32;;;;;;;;;;;;;;;-4.89;100.00;101425.66;5011900;28;1489;-72
2021/12/23 00:26:58;;;;;;;;;;;;;;;-4.89;100.00;101425.66;5012796;28;1914;-70
2021/12/23 00:29:24;;;;;;;;;;;;;;;-4.94;100.00;101416.84;5011901;28;994;-73
2021/12/23 00:31:51;;;;;;;;;;;;;;;-5.00;100.00;101419.53;5012091;28;999;-73
2021/12/23 00:34:17;;;;;;;;;;;;;;;-5.03;100.00;101414.25;5013608;28;1324;-73
2021/12/23 00:36:45;;;;;;;;;;;;;;;-5.05;100.00;101426.59;5013086;28;844;-73
2021/12/23 00:39:14;;;;;;;;;;;;;;;-5.06;100.00;101422.22;5012276;28;804;-70
2021/12/23 00:41:42;;;;;;;;;;;;;;;-5.08;100.00;101416.03;5013121;28;1101;-72
2021/12/23 00:44:08;;;;;;;;;;;;;;;-5.09;100.00;101414.28;5012591;28;1297;-71
2021/12/23 00:46:35;;;;;;;;;;;;;;;-5.11;100.00;101410.78;5011433;28;1979;-71
2021/12/23 00:49:01;;;;;;;;;;;;;;;-5.12;100.00;101414.31;5012705;28;955;-71
2021/12/23 00:51:29;;;;;;;;;;;;;;;-5.13;100.00;101408.16;5012678;28;790;-71
2021/12/23 00:54:04;;;;;;;;;;;;;;;-5.14;100.00;101400.22;5012917;28;1376;-73
2021/12/23 00:56:31;;;;;;;;;;;;;;;-5.10;100.00;101394.00;5012618;28;946;-73
2021/12/23 00:58:58;;;;;;;;;;;;;;;-5.05;100.00;101394.84;5012571;28;951;-73
2021/12/23 01:01:24;;;;;;;;;;;;;;;-5.01;100.00;101401.91;5012768;28;1037;-71
2021/12/23 01:03:50;;;;;;;;;;;;;;;-5.01;100.00;101401.91;5010936;28;1306;-70
2021/12/23 01:06:16;;;;;;;;;;;;;;;-5.00;100.00;101402.78;5012214;28;1906;-71
2021/12/23 01:08:43;;;;;;;;;;;;;;;-5.02;100.00;101393.94;5012430;28;903;-75
2021/12/23 01:11:09;;;;;;;;;;;;;;;-5.03;100.00;101386.91;5012582;28;974;-75
2021/12/23 01:13:38;;;;;;;;;;;;;;;-5.02;100.00;101384.25;5012391;28;1483;-72
2021/12/23 01:16:06;;;;;;;;;;;;;;;-4.99;100.00;101386.88;5011368;28;1322;-73
2021/12/23 01:18:38;;;;;;;;;;;;;;;-4.98;100.00;101377.13;5012589;28;967;-72
2021/12/23 01:21:14;;;;;;;;;;;;;;;-4.98;100.00;101383.34;5011600;28;1255;-71
2021/12/23 01:23:43;;;;;;;;;;;;;;;-4.97;100.00;101381.56;5012795;28;967;-73
2021/12/23 01:26:09;;;;;;;;;;;;;;;-4.95;100.00;101377.13;5012112;28;931;-71
2021/12/23 01:28:36;;;;;;;;;;;;;;;-4.94;100.00;101378.91;5012309;28;1915;-72
2021/12/23 01:31:03;;;;;;;;;;;;;;;-4.92;100.00;101364.75;5010954;28;1065;-73
2021/12/23 01:33:29;;;;;;;;;;;;;;;-4.89;100.00;101372.69;5012219;28;846;-72
2021/12/23 01:35:56;;;;;;;;;;;;;;;-4.85;100.00;101367.34;5011775;28;1390;-73
2021/12/23 01:38:22;;;;;;;;;;;;;;;-4.85;100.00;101375.28;5010580;28;1134;-71
2021/12/23 01:40:48;;;;;;;;;;;;;;;-4.87;100.00;101365.59;5010622;28;932;-72
2021/12/23 01:43:17;;;;;;;;;;;;;;;-4.87;100.00;101365.59;5010821;28;979;-72
2021/12/23 01:45:45;;;;;;;;;;;;;;;-4.86;100.00;101358.53;5010485;28;1377;-71
2021/12/23 01:48:13;;;;;;;;;;;;;;;-4.85;100.00;101359.41;5011952;28;1985;-71
2021/12/23 01:50:39;;;;;;;;;;;;;;;-4.85;100.00;101362.06;5012064;28;844;-72
2021/12/23 01:53:06;;;;;;;;;;;;;;;-4.84;100.00;101363.81;5011965;28;963;-70
2021/12/23 01:55:35;;;;;;;;;;;;;;;-4.84;100.00;101358.53;5011728;28;1415;-76
2021/12/23 01:58:01;;;;;;;;;;;;;;;-4.82;100.00;101359.38;5011661;28;1002;-73
2021/12/23 02:00:29;;;;;;;;;;;;;;;-4.81;100.00;101350.53;5010969;28;840;-73
2021/12/23 02:02:56;;;;;;;;;;;;;;;-4.79;100.00;101347.00;5010602;28;837;-74
2021/12/23 02:05:24;;;;;;;;;;;;;;;-4.78;100.00;101337.28;5011743;28;1278;-73
2021/12/23 02:07:50;;;;;;;;;;;;;;;-4.77;100.00;101336.38;5011407;28;1922;-73
2021/12/23 02:10:17;;;;;;;;;;;;;;;-4.77;100.00;101329.31;5011707;28;947;-73
2021/12/23 02:12:44;;;;;;;;;;;;;;;-4.76;100.00;101328.41;5011528;28;1029;-73
2021/12/23 02:15:11;;;;;;;;;;;;;;;-4.74;100.00;101320.47;5009999;28;1431;-74
2021/12/23 02:17:37;;;;;;;;;;;;;;;-4.73;100.00;101316.91;5009944;28;1213;-74
2021/12/23 02:20:06;;;;;;;;;;;;;;;-4.73;100.00;101306.31;5011584;28;1014;-73
2021/12/23 02:22:32;;;;;;;;;;;;;;;-4.73;100.00;101301.91;5011432;28;978;-71
2021/12/23 02:24:59;;;;;;;;;;;;;;;-4.73;100.00;101296.63;5010435;28;1398;-74
2021/12/23 02:27:25;;;;;;;;;;;;;;;-4.72;100.00;101289.53;5009423;28;1910;-74
2021/12/23 02:29:51;;;;;;;;;;;;;;;-4.71;100.00;101289.50;5010205;28;995;-75
2021/12/23 02:32:18;;;;;;;;;;;;;;;-4.71;100.00;101278.91;5011531;28;966;-74
2021/12/23 02:34:44;;;;;;;;;;;;;;;-4.70;100.00;101274.50;5010976;28;1356;-73
2021/12/23 02:37:13;;;;;;;;;;;;;;;-4.69;100.00;101275.38;5011200;28;780;-74
2021/12/23 02:39:40;;;;;;;;;;;;;;;-4.71;100.00;101273.63;5011521;28;982;-73
2021/12/23 02:42:07;;;;;;;;;;;;;;;-4.72;100.00;101271.00;5011015;28;675;-70
2021/12/23 02:44:33;;;;;;;;;;;;;;;-4.71;100.00;101273.63;5011194;28;1339;-72
2021/12/23 02:46:59;;;;;;;;;;;;;;;-4.71;100.00;101272.75;5009669;28;1996;-72
2021/12/23 02:49:26;;;;;;;;;;;;;;;-4.72;100.00;101277.19;5009796;28;912;-72
2021/12/23 02:51:52;;;;;;;;;;;;;;;-4.72;100.00;101276.28;5009534;28;1243;-73
2021/12/23 02:54:20;;;;;;;;;;;;;;;-4.71;100.00;101262.16;5011102;28;1375;-71
2021/12/23 02:56:46;;;;;;;;;;;;;;;-4.71;100.00;101251.56;5010982;28;871;-73
2021/12/23 02:59:12;;;;;;;;;;;;;;;-4.71;100.00;101240.97;5010910;28;844;-70
2021/12/23 03:01:39;;;;;;;;;;;;;;;-4.71;100.00;101227.72;5008531;28;2045;-70
2021/12/23 03:04:05;;;;;;;;;;;;;;;-4.72;100.00;101224.19;5001400;28;1333;-72
2021/12/23 03:06:31;;;;;;;;;;;;;;;-4.73;100.00;101219.78;5010432;28;800;-73
2021/12/23 03:08:59;;;;;;;;;;;;;;;-4.72;100.00;101212.69;5010638;28;1981;-72
2021/12/23 03:11:28;;;;;;;;;;;;;;;-4.72;100.00;101207.41;5009219;28;773;-73
2021/12/23 03:13:55;;;;;;;;;;;;;;;-4.71;100.00;101201.22;5010665;28;1387;-72
2021/12/23 03:16:22;;;;;;;;;;;;;;;-4.70;100.00;101195.03;5010343;28;841;-72
2021/12/23 03:18:48;;;;;;;;;;;;;;;-4.71;100.00;101198.56;5008968;28;1532;-72
2021/12/23 03:21:15;;;;;;;;;;;;;;;-4.68;100.00;101189.72;5010534;28;927;-72
2021/12/23 03:23:41;;;;;;;;;;;;;;;-4.68;100.00;101182.63;5010397;28;785;-74
2021/12/23 03:26:07;;;;;;;;;;;;;;;-4.66;100.00;101180.84;5009333;28;1445;-73
2021/12/23 03:28:35;;;;;;;;;;;;;;;-4.65;100.00;101177.31;5010708;28;1906;-73
2021/12/23 03:31:01;;;;;;;;;;;;;;;-4.64;100.00;101178.19;5010699;28;876;-74
2021/12/23 03:33:28;;;;;;;;;;;;;;;-4.66;100.00;101167.59;5010725;28;979;-73
2021/12/23 03:35:55;;;;;;;;;;;;;;;-4.66;100.00;101161.41;5010088;28;1383;-74
2021/12/23 03:38:21;;;;;;;;;;;;;;;-4.66;100.00;101156.09;5009270;28;951;-74
2021/12/23 03:40:49;;;;;;;;;;;;;;;-4.66;100.00;101151.72;5013652;28;845;-73
2021/12/23 03:43:16;;;;;;;;;;;;;;;-4.66;100.00;101149.06;5013681;28;773;-73
2021/12/23 03:45:45;;;;;;;;;;;;;;;-4.65;100.00;101139.31;5013697;28;1313;-74
2021/12/23 03:48:11;;;;;;;;;;;;;;;-4.66;100.00;101143.75;5012568;28;1981;-74
2021/12/23 03:50:37;;;;;;;;;;;;;;;-4.67;100.00;101133.19;5013817;28;978;-73
2021/12/23 03:53:04;;;;;;;;;;;;;;;-4.65;100.00;101115.47;5012744;28;1135;-74
2021/12/23 03:55:30;;;;;;;;;;;;;;;-4.64;100.00;101114.59;5016263;28;1321;-73
2021/12/23 03:57:57;;;;;;;;;;;;;;;-4.64;100.00;101104.84;5013867;28;1057;-74
2021/12/23 04:00:23;;;;;;;;;;;;;;;-4.65;100.00;101111.06;5013636;28;1054;-72
2021/12/23 04:02:51;;;;;;;;;;;;;;;-4.64;100.00;101104.84;5013184;28;990;-74
2021/12/23 04:05:18;;;;;;;;;;;;;;;-4.62;100.00;101103.06;5013673;28;1306;-73
2021/12/23 04:07:44;;;;;;;;;;;;;;;-4.61;100.00;101098.66;5013265;28;1910;-73
2021/12/23 04:10:12;;;;;;;;;;;;;;;-4.63;100.00;101089.84;5013805;28;1010;-74
2021/12/23 04:12:38;;;;;;;;;;;;;;;-4.62;100.00;101096.88;5013484;28;741;-72
2021/12/23 04:15:05;;;;;;;;;;;;;;;-4.63;100.00;101093.38;5013202;28;1323;-71
2021/12/23 04:17:32;;;;;;;;;;;;;;;-4.62;100.00;101087.19;5012895;28;1014;-71
2021/12/23 04:20:13;;;;;;;;;;;;;;;-4.63;100.00;101085.41;5013255;28;716;-74
2021/12/23 04:22:39;;;;;;;;;;;;;;;-4.59;100.00;101078.31;5013199;28;994;-72
2021/12/23 04:25:06;;;;;;;;;;;;;;;-4.57;100.00;101069.47;5011890;28;1328;-72
2021/12/23 04:27:32;;;;;;;;;;;;;;;-4.55;100.00;101066.78;5013040;28;1967;-73
2021/12/23 04:29:59;;;;;;;;;;;;;;;-4.55;100.00;101066.78;5012962;28;1030;-71
2021/12/23 04:32:25;;;;;;;;;;;;;;;-4.54;100.00;101058.81;5012790;28;1002;-72
2021/12/23 04:34:51;;;;;;;;;;;;;;;-4.50;100.00;101054.34;5011424;28;1300;-74
2021/12/23 04:37:19;;;;;;;;;;;;;;;-4.51;100.00;101043.78;5011699;28;661;-74
2021/12/23 04:39:45;;;;;;;;;;;;;;;-4.50;100.00;101043.75;5012781;28;871;-71
2021/12/23 04:42:11;;;;;;;;;;;;;;;-4.47;100.00;101045.47;5011474;28;911;-73
2021/12/23 04:44:37;;;;;;;;;;;;;;;-4.45;100.00;101055.16;5012492;28;1312;-72
2021/12/23 04:47:04;;;;;;;;;;;;;;;-4.43;100.00;101049.84;5012414;28;821;-71
2021/12/23 04:49:30;;;;;;;;;;;;;;;-4.42;100.00;101041.00;5013032;28;1902;-72
2021/12/23 04:51:56;;;;;;;;;;;;;;;-4.40;100.00;101037.41;5010276;28;831;-75
2021/12/23 04:54:24;;;;;;;;;;;;;;;-4.39;100.00;101033.00;5012258;28;1331;-75
2021/12/23 04:56:50;;;;;;;;;;;;;;;-4.40;100.00;101034.75;5012075;28;803;-72
2021/12/23 04:59:17;;;;;;;;;;;;;;;-4.36;100.00;101030.28;5012486;28;982;-73
2021/12/23 05:01:43;;;;;;;;;;;;;;;-4.34;100.00;101023.19;5011337;28;887;-74
2021/12/23 05:04:09;;;;;;;;;;;;;;;-4.33;100.00;101011.69;5012539;28;1306;-74
2021/12/23 05:06:36;;;;;;;;;;;;;;;-4.30;100.00;101019.59;5056081;22;3566;-78
2021/12/23 05:09:02;;;;;;;;;;;;;;;-4.30;100.00;101014.31;5051884;28;1977;-78
2021/12/23 05:11:30;;;;;;;;;;;;;;;-4.26;100.00;101009.81;5051859;28;1006;-76
2021/12/23 05:13:56;;;;;;;;;;;;;;;-4.25;100.00;100996.56;5051661;28;971;-76
2021/12/23 05:16:23;;;;;;;;;;;;;;;-4.23;100.00;100986.78;5047721;28;1447;-77
2021/12/23 05:18:49;;;;;;;;;;;;;;;-4.24;100.00;100973.56;5071830;28;895;-77
2021/12/23 05:21:16;;;;;;;;;;;;;;;-4.22;100.00;100980.59;5071468;28;1073;-75
2021/12/23 05:23:42;;;;;;;;;;;;;;;-4.18;100.00;100986.72;5071422;28;881;-77
2021/12/23 05:26:08;;;;;;;;;;;;;;;-4.16;100.00;100990.22;5068856;28;1484;-75
2021/12/23 05:28:36;;;;;;;;;;;;;;;-4.13;100.00;100983.97;5063484;28;1922;-76
2021/12/23 05:31:03;;;;;;;;;;;;;;;-4.14;100.00;100974.28;5068368;28;1506;-76
2021/12/23 05:33:29;;;;;;;;;;;;;;;-4.11;100.00;100966.28;5056485;28;1512;-76
2021/12/23 05:35:56;;;;;;;;;;;;;;;-4.10;100.00;100968.00;5060909;28;1521;-78
2021/12/23 05:38:22;;;;;;;;;;;;;;;-4.10;100.00;100965.38;5078591;28;1005;-77
2021/12/23 05:40:49;;;;;;;;;;;;;;;-4.09;100.00;100953.84;5051164;28;1576;-76
2021/12/23 05:43:15;;;;;;;;;;;;;;;-4.06;100.00;100960.00;5024936;28;1506;-76
2021/12/23 05:45:43;;;;;;;;;;;;;;;-4.06;100.00;100953.84;5050918;28;2004;-74
2021/12/23 05:48:09;;;;;;;;;;;;;;;-4.06;100.00;100943.22;5051201;28;1918;-77
2021/12/23 05:50:35;;;;;;;;;;;;;;;-4.04;100.00;100941.41;5035078;28;1081;-76
2021/12/23 05:53:02;;;;;;;;;;;;;;;-4.04;100.00;100936.09;5053250;28;1133;-77
2021/12/23 05:55:28;;;;;;;;;;;;;;;-4.00;100.00;100936.94;5054734;28;1352;-77
2021/12/23 05:57:54;;;;;;;;;;;;;;;-3.95;100.00;100935.06;5057582;28;760;-77
2021/12/23 06:00:23;;;;;;;;;;;;;;;-3.96;100.00;100935.97;5053719;28;1036;-76
2021/12/23 06:02:51;;;;;;;;;;;;;;;-3.95;100.00;100932.41;5052754;28;962;-78
2021/12/23 06:05:18;;;;;;;;;;;;;;;-3.94;100.00;100932.38;5053804;28;1385;-78
2021/12/23 06:07:45;;;;;;;;;;;;;;;-3.94;100.00;100927.09;5035481;28;982;-75
2021/12/23 06:10:12;;;;;;;;;;;;;;;-3.94;100.00;100911.16;5034393;28;1902;-75
2021/12/23 06:12:39;;;;;;;;;;;;;;;-3.93;100.00;100909.38;5034368;28;911;-77
2021/12/23 06:15:05;;;;;;;;;;;;;;;-3.92;100.00;100903.19;5034397;28;1321;-76
2021/12/23 06:17:32;;;;;;;;;;;;;;;-3.91;100.00;100902.28;5052154;28;1042;-75
2021/12/23 06:19:59;;;;;;;;;;;;;;;-3.91;100.00;100900.50;5052571;28;916;-77
2021/12/23 06:22:26;;;;;;;;;;;;;;;-3.89;100.00;100887.19;5052474;28;951;-77
2021/12/23 06:24:52;;;;;;;;;;;;;;;-3.89;100.00;100888.09;5052274;28;1375;-78
2021/12/23 06:27:19;;;;;;;;;;;;;;;-3.88;100.00;100881.00;5051760;28;1789;-74
2021/12/23 06:29:46;;;;;;;;;;;;;;;-3.87;100.00;100875.66;5056154;28;1914;-76
2021/12/23 06:32:13;;;;;;;;;;;;;;;-3.84;100.00;100879.16;5051064;28;827;-77
2021/12/23 06:34:39;;;;;;;;;;;;;;;-3.81;100.00;100879.09;5044995;28;1533;-77
2021/12/23 06:37:07;;;;;;;;;;;;;;;-3.80;100.00;100872.91;5049754;28;1508;-77
2021/12/23 06:39:33;;;;;;;;;;;;;;;-3.79;100.00;100878.16;5069688;28;1025;-75
2021/12/23 06:42:00;;;;;;;;;;;;;;;-3.80;100.00;100872.91;5069494;28;1501;-76
2021/12/23 06:44:26;;;;;;;;;;;;;;;-3.77;100.00;100871.06;5070312;28;1054;-75
2021/12/23 06:46:53;;;;;;;;;;;;;;;-3.75;100.00;100869.25;5056263;28;1563;-75
2021/12/23 06:49:19;;;;;;;;;;;;;;;-3.76;100.00;100863.97;5050824;28;1918;-76
2021/12/23 06:51:45;;;;;;;;;;;;;;;-3.74;100.00;100859.50;5058999;28;1481;-75
2021/12/23 06:54:15;;;;;;;;;;;;;;;-3.76;100.00;100848.06;5060414;28;1042;-75
2021/12/23 06:56:41;;;;;;;;;;;;;;;-3.73;100.00;100850.63;5051742;28;1316;-76
2021/12/23 06:59:08;;;;;;;;;;;;;;;-3.72;100.00;100847.94;5051149;28;950;-76
2021/12/23 07:01:34;;;;;;;;;;;;;;;-3.69;100.00;100857.63;5045240;28;1548;-76
2021/12/23 07:04:07;;;;;;;;;;;;;;;-3.69;100.00;100857.63;5072097;28;890;-78
2021/12/23 07:06:35;;;;;;;;;;;;;;;-3.68;100.00;100854.06;5042501;28;1375;-78
2021/12/23 07:09:03;;;;;;;;;;;;;;;-3.66;100.00;100851.38;5073603;28;1976;-78
2021/12/23 07:11:30;;;;;;;;;;;;;;;-3.67;100.00;100839.00;5053441;28;1207;-76
2021/12/23 07:13:56;;;;;;;;;;;;;;;-3.68;100.00;100835.50;5069543;28;1474;-75
2021/12/23 07:16:23;;;;;;;;;;;;;;;-3.67;100.00;100837.25;5072173;28;1690;-76
2021/12/23 07:18:49;;;;;;;;;;;;;;;-3.66;100.00;100835.47;5072792;28;777;-76
2021/12/23 07:21:15;;;;;;;;;;;;;;;-3.66;100.00;100824.84;5065368;28;1576;-80
2021/12/23 07:23:42;;;;;;;;;;;;;;;-3.66;100.00;100831.03;5084550;28;846;-78
2021/12/23 07:26:08;;;;;;;;;;;;;;;-3.66;100.00;100822.19;5056077;28;1519;-79
2021/12/23 07:28:35;;;;;;;;;;;;;;;-3.66;100.00;100815.13;5050766;28;1979;-79
2021/12/23 07:31:02;;;;;;;;;;;;;;;-3.66;100.00;100817.78;5083325;28;1088;-80
2021/12/23 07:33:28;;;;;;;;;;;;;;;-3.65;100.00;100806.22;5070890;28;1178;-81
2021/12/23 07:35:54;;;;;;;;;;;;;;;-3.61;100.00;100807.91;5072808;28;1579;-76
2021/12/23 07:38:20;;;;;;;;;;;;;;;-3.61;100.00;100807.06;5069859;28;1461;-77
2021/12/23 07:40:47;;;;;;;;;;;;;;;-3.56;100.00;100810.47;5075951;28;1529;-78
2021/12/23 07:43:31;;;;;;;;;;;;;;;-3.56;100.00;100800.72;5075895;28;1298;-79
2021/12/23 07:45:59;;;;;;;;;;;;;;;-3.53;100.00;100799.78;5071005;28;1477;-79
2021/12/23 07:48:25;;;;;;;;;;;;;;;-3.51;100.00;100783.81;5077299;28;1902;-77
2021/12/23 07:50:53;;;;;;;;;;;;;;;-3.47;100.00;100783.75;5074697;28;914;-76
2021/12/23 07:53:19;;;;;;;;;;;;;;;-3.42;100.00;100792.47;5072751;28;1540;-78
2021/12/23 07:55:45;;;;;;;;;;;;;;;-3.37;100.00;100792.38;5044704;28;2381;-77
2021/12/23 07:58:12;;;;;;;;;;;;;;;-3.34;100.00;100804.69;5073984;28;1302;-80
2021/12/23 08:00:38;;;;;;;;;;;;;;;-3.30;100.00;100801.97;5078506;28;1197;-79
2021/12/23 08:03:06;;;;;;;;;;;;;;;-3.31;100.00;100786.94;5062326;28;1482;-80
2021/12/23 08:05:33;;;;;;;;;;;;;;;-3.30;100.00;100779.81;5041004;28;1537;-78
2021/12/23 08:07:59;;;;;;;;;;;;;;;-3.28;100.00;100778.03;5059272;28;1532;-77
2021/12/23 08:10:26;;;;;;;;;;;;;;;-3.27;100.00;100761.19;5059849;28;2018;-79
2021/12/23 08:12:52;;;;;;;;;;;;;;;-3.26;100.00;100777.09;5083030;28;1211;-79
2021/12/23 08:15:19;;;;;;;;;;;;;;;-3.22;100.00;100769.91;5072531;28;1528;-75
2021/12/23 08:17:45;;;;;;;;;;;;;;;-3.22;100.00;100784.06;5053457;28;1325;-76
2021/12/23 08:20:15;;;;;;;;;;;;;;;-3.17;100.00;100775.13;5055692;28;1516;-78
2021/12/23 08:22:41;;;;;;;;;;;;;;;-3.16;100.00;100774.22;5050574;28;1279;-79
2021/12/23 08:25:08;;;;;;;;;;;;;;;-3.13;100.00;100779.44;5062751;28;1509;-79
2021/12/23 08:27:35;;;;;;;;;;;;;;;-3.11;100.00;100772.31;5076186;28;1505;-79
2021/12/23 08:30:01;;;;;;;;;;;;;;;-3.09;100.00;100762.53;5043469;28;1973;-76
2021/12/23 08:32:28;;;;;;;;;;;;;;;-3.06;100.00;100751.81;5072998;28;812;-76
2021/12/23 08:34:54;;;;;;;;;;;;;;;-3.02;100.00;100737.53;5070204;28;1723;-76
2021/12/23 08:37:22;;;;;;;;;;;;;;;-3.05;100.00;100738.53;5073504;28;832;-76
2021/12/23 08:39:49;;;;;;;;;;;;;;;-3.05;100.00;100737.63;5072103;28;1525;-76
2021/12/23 08:42:15;;;;;;;;;;;;;;;-3.04;100.00;100729.63;5054297;28;1564;-77
2021/12/23 08:44:41;;;;;;;;;;;;;;;-3.03;100.00;100726.06;5052423;28;1573;-77
2021/12/23 08:47:08;;;;;;;;;;;;;;;-3.06;100.00;100719.94;5062166;28;1528;-74
2021/12/23 08:49:35;;;;;;;;;;;;;;;-3.09;100.00;100712.06;5051966;28;2033;-76
2021/12/23 08:52:01;;;;;;;;;;;;;;;-3.11;100.00;100719.22;5058491;28;1247;-77
2021/12/23 08:54:28;;;;;;;;;;;;;;;-3.08;100.00;100719.13;5037390;28;1497;-76
2021/12/23 08:56:55;;;;;;;;;;;;;;;-3.04;100.00;100710.16;5071479;28;1408;-76
2021/12/23 08:59:21;;;;;;;;;;;;;;;-3.05;100.00;100705.75;5062051;28;1509;-75
2021/12/23 09:01:47;;;;;;;;;;;;;;;-3.09;100.00;100690.81;5035345;28;1149;-77
2021/12/23 09:04:14;;;;;;;;;;;;;;;-3.08;100.00;100687.25;5065570;28;2050;-77
2021/12/23 09:06:41;;;;;;;;;;;;;;;-3.06;100.00;100681.00;5052032;28;1308;-76
2021/12/23 09:09:08;;;;;;;;;;;;;;;-2.98;100.00;100680.78;5066313;28;1918;-78
2021/12/23 09:11:36;;;;;;;;;;;;;;;-2.94;100.00;100670.94;5079078;28;1213;-77
2021/12/23 09:14:02;;;;;;;;;;;;;;;-2.93;100.00;100668.25;5056646;28;1302;-78
2021/12/23 09:16:28;;;;;;;;;;;;;;;-2.87;100.00;100652.16;5055144;28;1414;-78
2021/12/23 09:18:54;;;;;;;;;;;;;;;-2.82;100.00;100651.16;5033695;28;1445;-77
2021/12/23 09:21:21;;;;;;;;;;;;;;;-2.76;100.00;100653.66;5071784;28;1232;-77
2021/12/23 09:23:47;;;;;;;;;;;;;;;-2.70;100.00;100638.41;5054005;28;1277;-77
2021/12/23 09:26:13;;;;;;;;;;;;;;;-2.67;100.00;100632.13;5053964;28;1337;-77
2021/12/23 09:28:54;;;;;;;;;;;;;;;-2.61;100.00;100626.63;5068714;28;1521;-77
2021/12/23 09:34:04;;;;;;;;;;;;;;;-2.55;100.00;100607.88;5049111;28;1504;-77
2021/12/23 09:36:31;;;;;;;;;;;;;;;-2.54;100.00;100598.97;5048496;28;1488;-76
2021/12/23 09:38:57;;;;;;;;;;;;;;;-2.45;100.00;100605.81;5035186;28;1260;-76
2021/12/23 09:41:24;;;;;;;;;;;;;;;-2.40;100.00;100603.03;5057622;28;1327;-76
2021/12/23 09:43:56;;;;;;;;;;;;;;;-2.40;100.00;100587.06;5070881;28;1109;-77
2021/12/23 09:46:22;;;;;;;;;;;;;;;-2.38;100.00;100578.13;5051897;28;1399;-77
2021/12/23 09:48:49;;;;;;;;;;;;;;;-2.36;100.00;100573.63;5073501;28;1010;-77
2021/12/23 09:51:17;;;;;;;;;;;;;;;-2.32;100.00;100570.91;5068398;28;1921;-77
2021/12/23 09:53:46;;;;;;;;;;;;;;;-2.32;100.00;100566.44;5060298;28;1332;-78
2021/12/23 09:56:12;;;;;;;;;;;;;;;-2.28;100.00;100567.22;5035256;28;1475;-77
2021/12/23 09:58:38;;;;;;;;;;;;;;;-2.26;100.00;100549.41;5051449;28;777;-77
2021/12/23 10:01:07;;;;;;;;;;;;;;;-2.24;100.00;100545.78;5061969;28;1283;-77
2021/12/23 10:03:34;;;;;;;;;;;;;;;-2.14;100.00;100533.06;5074307;28;898;-77
2021/12/23 10:06:00;;;;;;;;;;;;;;;-2.22;100.00;100528.00;5069550;28;1369;-77
2021/12/23 10:08:27;;;;;;;;;;;;;;;-2.07;100.00;100533.72;5052055;28;1013;-76
2021/12/23 10:10:58;;;;;;;;;;;;;;;-1.98;100.00;100530.78;5057208;28;1918;-77
2021/12/23 10:28:28;;;;;;;;;;;;;;;-1.77;100.00;100480.44;5056410;28;1568;-78
2021/12/23 10:33:27;;;;;;;;;;;;;;;-1.78;100.00;100457.41;5055015;28;1529;-78
2021/12/23 10:38:39;;;;;;;;;;;;;;;-1.76;100.00;100437.81;5072185;28;1556;-78
2021/12/23 10:41:06;;;;;;;;;;;;;;;-1.83;100.00;100432.75;5073904;28;1699;-77
2021/12/23 10:43:35;;;;;;;;;;;;;;;-1.78;100.00;100430.78;5079621;28;1067;-78
2021/12/23 10:46:03;;;;;;;;;;;;;;;-1.77;100.00;100421.91;5070384;28;1521;-77
2021/12/23 10:48:33;;;;;;;;;;;;;;;-1.73;100.00;100420.88;5069412;28;1584;-77
2021/12/23 10:51:02;;;;;;;;;;;;;;;-1.81;100.00;100414.94;5074063;28;1914;-78
2021/12/23 10:53:42;;;;;;;;;;;;;;;-1.90;100.00;100406.38;5056606;28;832;-75
2021/12/23 10:59:01;;;;;;;;;;;;;;;-1.79;100.00;100387.38;5052643;28;1553;-75
2021/12/23 11:01:27;;;;;;;;;;;;;;;-1.75;100.00;100377.44;5067667;28;898;-75
2021/12/23 11:04:00;;;;;;;;;;;;;;;-1.79;100.00;100359.84;5073073;28;1327;-75
2021/12/23 11:06:31;;;;;;;;;;;;;;;-1.73;100.00;100357.00;5072014;28;1568;-76
2021/12/23 11:09:13;;;;;;;;;;;;;;;-1.68;100.00;100341.72;5071805;28;1606;-76
2021/12/23 11:12:10;;;;;;;;;;;;;;;-1.57;100.00;100357.31;5074549;28;1988;-77
2021/12/23 11:37:04;;;;;;;;;;;;;;;-1.45;100.00;100311.56;5062489;28;1413;-76
2021/12/23 11:39:45;;;;;;;;;;;;;;;-1.36;100.00;100305.91;5041602;28;1482;-76
2021/12/23 11:42:17;;;;;;;;;;;;;;;-1.27;100.00;100290.47;5073906;28;906;-76
2021/12/23 11:44:43;;;;;;;;;;;;;;;-1.19;100.00;100286.59;5073361;28;1769;-76
2021/12/23 11:47:13;;;;;;;;;;;;;;;-1.13;100.00;100285.47;5071334;28;1528;-76
2021/12/23 11:49:41;;;;;;;;;;;;;;;-0.98;100.00;100294.66;5054577;28;2000;-76
2021/12/23 11:52:09;;;;;;;;;;;;;;;-0.98;100.00;100288.47;5076334;28;1045;-76
2021/12/23 11:54:36;;;;;;;;;;;;;;;-0.98;100.00;100302.66;5044773;28;1584;-76
2021/12/23 11:57:05;;;;;;;;;;;;;;;-0.95;100.00;100302.53;5035058;28;1309;-76
2021/12/23 11:59:32;;;;;;;;;;;;;;;-0.82;100.00;100328.69;5069937;28;1533;-76
2021/12/23 12:01:59;;;;;;;;;;;;;;;-0.74;100.00;100305.25;5053393;28;1477;-76
2021/12/23 12:04:27;;;;;;;;;;;;;;;-0.66;100.00;100294.28;5079018;28;1721;-77
2021/12/23 12:06:54;;;;;;;;;;;;;;;-0.58;100.00;100298.34;5084845;28;1328;-77
2021/12/23 12:09:23;;;;;;;;;;;;;;;-0.48;100.00;100309.50;5037714;28;1224;-76
2021/12/23 12:12:03;;;;;;;;;;;;;;;-0.42;100.00;100297.72;5051986;28;1918;-76
2021/12/23 12:14:34;;;;;;;;;;;;;;;-0.40;100.00;100288.72;5067599;28;1019;-77
2021/12/23 12:17:15;;;;;;;;;;;;;;;-0.45;100.00;100281.84;5054051;28;1362;-76
2021/12/23 12:19:51;;;;;;;;;;;;;;;-0.51;100.00;100294.50;5054720;28;1215;-76
2021/12/23 12:22:32;;;;;;;;;;;;;;;-0.48;100.00;100273.97;5068622;28;1512;-77
2021/12/23 12:25:00;;;;;;;;;;;;;;;-0.54;100.00;100259.09;5046384;28;1520;-76
2021/12/23 12:27:27;;;;;;;;;;;;;;;-0.56;100.00;100253.84;5053927;28;1508;-76
2021/12/23 12:30:04;;;;;;;;;;;;;;;-0.58;100.00;100238.84;5072625;28;1906;-76
2021/12/23 12:32:34;;;;;;;;;;;;;;;-0.74;100.00;100218.16;5034781;28;1589;-77
2021/12/23 12:35:01;;;;;;;;;;;;;;;-0.72;100.00;100234.06;5070604;28;1466;-76
2021/12/23 12:37:40;;;;;;;;;;;;;;;-0.72;100.00;100210.06;5050268;28;1548;-76
2021/12/23 12:40:08;;;;;;;;;;;;;;;-0.73;100.00;100203.03;5064992;28;1482;-74
2021/12/23 12:42:38;;;;;;;;;;;;;;;-0.72;100.00;100194.97;5072704;28;884;-76
2021/12/23 12:45:10;;;;;;;;;;;;;;;-0.77;100.00;100204.09;5063305;28;1576;-76
2021/12/23 12:47:47;;;;;;;;;;;;;;;-0.75;100.00;100196.88;5037568;28;1254;-76
2021/12/23 12:50:15;;;;;;;;;;;;;;;-0.70;100.00;100189.56;5035378;28;1914;-76
2021/12/23 12:52:45;;;;;;;;;;;;;;;-0.71;100.00;100178.06;5039352;28;1560;-75
2021/12/23 12:55:14;;;;;;;;;;;;;;;-0.78;100.00;100167.72;5061072;28;1497;-76
2021/12/23 12:57:43;;;;;;;;;;;;;;;-0.86;100.00;100160.03;5060906;28;1588;-76
2021/12/23 13:00:35;;;;;;;;;;;;;;;-0.90;100.00;100161.97;5053366;28;906;-76
2021/12/23 13:03:05;;;;;;;;;;;;;;;-0.88;100.00;100151.25;5036933;28;1489;-76
2021/12/23 13:05:34;;;;;;;;;;;;;;;-0.90;100.00;100145.97;5054895;28;1824;-77
2021/12/23 13:08:23;;;;;;;;;;;;;;;-0.89;100.00;100170.84;5071167;28;1286;-76
2021/12/23 13:11:17;;;;;;;;;;;;;;;-0.85;100.00;100167.97;5049418;28;1906;-78
2021/12/23 13:14:05;;;;;;;;;;;;;;;-0.78;100.00;100152.56;5073055;28;2256;-77
2021/12/23 13:16:50;;;;;;;;;;;;;;;-0.80;100.00;100159.78;5055714;28;1510;-77
2021/12/23 13:19:21;;;;;;;;;;;;;;;-0.74;100.00;100145.31;5075657;28;902;-77
2021/12/23 13:21:49;;;;;;;;;;;;;;;-0.70;100.00;100149.56;5072099;28;1699;-80
2021/12/23 13:24:17;;;;;;;;;;;;;;;-0.70;100.00;100145.09;5071675;28;2130;-76
2021/12/23 13:26:45;;;;;;;;;;;;;;;-0.69;100.00;100140.66;5069655;28;1508;-77
2021/12/23 13:29:13;;;;;;;;;;;;;;;-0.74;100.00;100138.19;5055568;28;1694;-77
2021/12/23 13:31:40;;;;;;;;;;;;;;;-0.78;100.00;100131.25;5064519;28;1918;-76
2021/12/23 13:34:09;;;;;;;;;;;;;;;-0.78;100.00;100130.41;5030410;28;1534;-76
2021/12/23 13:36:39;;;;;;;;;;;;;;;-0.79;100.00;100140.16;5076271;28;1306;-75